Hendricks, West Virginia
Current Conditions -  °F | °C
As of 2:21 PM on Tuesday 21 Oct 2014 (Local Time) from KEKN Reporting Station
Heavy Rain Heavy Rain  
Wind Chill: 10°   Ceiling: 1700
Heat Index: 10°   Visibility: 1.7mi
Dew Point: 10°   Wind: 0mph
Humidity: 100%   Direction: NA
Pressure: 29.9"   Gusts: NA
Location:  39.08°N, 79.63°W
Report Text: KEKN 211821Z AUTO 00000KT 1 3/4SM +RA BR FEW010 BKN017 OVC050 10/10 A2990 RMK AO2 P0004 T01000100 TSNO
Loading
Personal Weather Stations






























Interactive Weather Map
Tropical Storm Tracking
New forecast layout! Learn more

10-Day Weather Forecast

Advertisements
Track Severe Weather on mobile